Weather reports worldwide

Advertisment
Cairnwell, United Kingdom (3072): temperature & dewpoint: 12.08.2017 00:00:00 - 18.08.2017 00:00:00 (BST)Cairnwell, United Kingdom (3072): wind speed & gusts: 12.08.2017 00:00:00 - 18.08.2017 00:00:00 (BST)Cairnwell, United Kingdom (3072): wind direction: 12.08.2017 00:00:00 - 18.08.2017 00:00:00 (BST)Cairnwell, United Kingdom (3072): visibility: 12.08.2017 00:00:00 - 18.08.2017 00:00:00 (BST)
Date & Time tt [°C] td [°C] ff [km/h] ff [kn] fx [km/h] fx [kn] dd vv [km]
18.08.2017 00:00:00 8,2 8,1 34 18 - - SSW -
17.08.2017 23:00:00 8,3 8,2 26 14 - - S -
17.08.2017 22:00:00 8,5 8,4 24 13 - - SSW -
17.08.2017 21:00:00 8,7 8,6 26 14 - - SSW -
17.08.2017 20:00:00 9,2 8,9 31 17 61 33 SSW -
17.08.2017 19:00:00 9,1 8,2 42 23 65 35 SW -
17.08.2017 18:00:00 9,3 9,1 42 23 54 29 SW -
17.08.2017 17:00:00 10,3 7,8 46 25 65 35 SW -
17.08.2017 16:00:00 10,7 7,0 50 27 72 39 SW -
17.08.2017 15:00:00 10,1 7,1 50 27 70 38 SW -
17.08.2017 14:00:00 9,9 7,3 57 31 72 39 SW -
17.08.2017 13:00:00 9,6 7,5 46 25 68 37 SW -
17.08.2017 12:00:00 9,2 7,3 44 24 68 37 SSW -
17.08.2017 11:00:00 9,0 6,6 42 23 55 30 SSW -
17.08.2017 10:00:00 8,0 6,6 28 15 54 29 SW -
17.08.2017 09:00:00 7,2 5,0 41 22 63 34 SW -
17.08.2017 08:00:00 7,2 4,1 41 22 57 31 WSW -
17.08.2017 07:00:00 7,2 5,0 35 19 48 26 WSW -
17.08.2017 06:00:00 7,3 7,0 31 17 48 26 WSW -
17.08.2017 05:00:00 7,6 7,5 41 22 52 28 WSW -
17.08.2017 04:00:00 8,5 8,5 39 21 52 28 WSW -
17.08.2017 03:00:00 9,9 9,8 39 21 57 31 SW -
17.08.2017 02:00:00 10,2 10,1 44 24 67 36 SSW -
17.08.2017 01:00:00 10,0 10,0 48 26 78 42 SSW -
17.08.2017 00:00:00 10,2 10,2 61 33 81 44 S -
16.08.2017 23:00:00 10,0 9,9 67 36 83 45 S -
16.08.2017 22:00:00 9,8 9,8 63 34 83 45 S 0,3
16.08.2017 21:00:00 9,6 9,6 63 34 91 49 S -
16.08.2017 20:00:00 9,3 9,2 67 36 89 48 S -
16.08.2017 19:00:00 9,1 9,0 67 36 87 47 S -
16.08.2017 18:00:00 8,5 8,5 61 33 85 46 S -
16.08.2017 17:00:00 8,3 8,2 65 35 80 43 S -
16.08.2017 16:00:00 7,9 7,9 57 31 83 45 S -
16.08.2017 15:00:00 7,7 7,7 68 37 91 49 S -
16.08.2017 14:00:00 7,3 7,2 81 44 94 51 S -
16.08.2017 13:00:00 7,7 7,2 68 37 91 49 S -
16.08.2017 12:00:00 8,0 7,1 72 39 87 47 S -
16.08.2017 11:00:00 7,9 7,7 67 36 83 45 S -
16.08.2017 10:00:00 7,1 7,0 46 25 61 33 S -
16.08.2017 09:00:00 6,8 6,8 39 21 55 30 S -
16.08.2017 08:00:00 5,9 5,8 39 21 46 25 S -
16.08.2017 07:00:00 5,3 5,2 28 15 - - SSW -
16.08.2017 06:00:00 5,2 5,2 34 18 52 28 SW -
16.08.2017 05:00:00 5,3 5,2 39 21 50 27 WSW -
16.08.2017 04:00:00 5,1 5,0 34 18 54 29 SW -
16.08.2017 03:00:00 5,5 5,1 42 23 70 38 WSW -
16.08.2017 02:00:00 6,0 5,5 48 26 61 33 W -
16.08.2017 01:00:00 6,1 5,9 48 26 61 33 WSW -
16.08.2017 00:00:00 6,1 5,8 37 20 57 31 WSW -
15.08.2017 23:00:00 6,5 5,8 42 23 59 32 WSW -
15.08.2017 22:00:00 6,7 5,6 42 23 55 30 WSW -
15.08.2017 21:00:00 7,4 6,1 28 15 48 26 WSW -
15.08.2017 20:00:00 7,8 5,7 29 16 61 33 WSW -
15.08.2017 19:00:00 8,2 4,3 52 28 74 40 WSW -
15.08.2017 18:00:00 8,7 4,7 52 28 68 37 WSW -
15.08.2017 17:00:00 7,8 6,2 46 25 63 34 WSW -
15.08.2017 16:00:00 9,0 5,0 42 23 74 40 WSW -
15.08.2017 15:00:00 8,5 5,6 55 30 81 44 WSW -
15.08.2017 14:00:00 8,6 7,4 37 20 57 31 WSW -
15.08.2017 13:00:00 8,1 5,4 42 23 65 35 WSW -
15.08.2017 12:00:00 7,6 5,7 48 26 61 33 WSW -
15.08.2017 11:00:00 8,0 5,0 35 19 50 27 WSW -
15.08.2017 10:00:00 7,9 3,8 31 17 55 30 W -
15.08.2017 09:00:00 6,4 3,3 34 18 - - WNW -
15.08.2017 08:00:00 6,6 5,8 29 16 - - WNW -
15.08.2017 07:00:00 6,9 6,7 28 15 - - WNW -
15.08.2017 06:00:00 7,5 7,4 15 8 - - W -
15.08.2017 05:00:00 8,1 8,1 11 6 - - SW -
15.08.2017 04:00:00 7,9 7,8 8 4 - - W -
15.08.2017 03:00:00 8,5 8,5 11 6 - - WSW -
15.08.2017 02:00:00 9,0 9,0 18 10 - - SSW -
15.08.2017 01:00:00 9,4 9,3 31 17 - - SSW -
15.08.2017 00:00:00 9,4 9,3 31 17 52 28 SSW -
14.08.2017 23:00:00 9,5 9,5 44 24 57 31 S -
14.08.2017 22:00:00 9,7 9,7 42 23 57 31 S -
14.08.2017 21:00:00 10,0 10,0 48 26 74 40 SSW -
14.08.2017 20:00:00 10,0 10,0 55 30 85 46 SSW -
14.08.2017 19:00:00 10,3 10,2 70 38 85 46 S -
14.08.2017 18:00:00 10,0 9,9 41 22 72 39 S -
14.08.2017 17:00:00 9,7 9,6 52 28 70 38 S -
14.08.2017 16:00:00 9,1 9,1 42 23 68 37 SSE -
14.08.2017 15:00:00 8,6 8,6 44 24 63 34 SSE -
14.08.2017 14:00:00 8,1 8,1 44 24 72 39 SSE -
14.08.2017 13:00:00 7,7 7,6 52 28 70 38 SSE -
14.08.2017 12:00:00 7,3 7,2 54 29 72 39 SSE -
14.08.2017 11:00:00 7,0 7,0 54 29 72 39 SSE -
14.08.2017 10:00:00 6,7 6,6 50 27 67 36 SE -
14.08.2017 09:00:00 5,7 5,6 46 25 57 31 SSE -
14.08.2017 08:00:00 5,4 5,2 35 19 48 26 SSE -
14.08.2017 07:00:00 5,4 5,1 24 13 - - S -
14.08.2017 06:00:00 5,5 4,8 24 13 - - S -
14.08.2017 05:00:00 5,6 4,2 24 13 - - S -
14.08.2017 04:00:00 5,9 4,6 28 15 - - S -
14.08.2017 03:00:00 5,5 5,3 24 13 - - S -
14.08.2017 02:00:00 5,6 5,3 21 11 - - SSW -
14.08.2017 01:00:00 5,9 5,6 26 14 - - S -
14.08.2017 00:00:00 6,2 5,7 22 12 - - S -
13.08.2017 23:00:00 6,0 5,2 16 9 - - S -
13.08.2017 22:00:00 6,9 5,4 21 11 - - S 0,3
13.08.2017 21:00:00 7,1 4,9 11 6 - - S -
13.08.2017 20:00:00 7,2 4,7 16 9 - - SW -
13.08.2017 19:00:00 7,3 4,7 24 13 - - W -
13.08.2017 18:00:00 7,7 4,3 28 15 - - WSW -
13.08.2017 17:00:00 8,1 2,7 31 17 52 28 WSW -
13.08.2017 16:00:00 7,5 3,1 29 16 50 27 WSW -
13.08.2017 15:00:00 6,9 5,3 18 10 52 28 W -
13.08.2017 14:00:00 7,5 2,9 22 12 48 26 WSW -
13.08.2017 13:00:00 7,5 2,4 18 10 50 27 WSW -
13.08.2017 12:00:00 6,8 1,6 29 16 - - WSW -
13.08.2017 11:00:00 6,8 1,5 24 13 - - W -
13.08.2017 10:00:00 6,2 2,9 22 12 46 25 W 0,3
13.08.2017 09:00:00 4,9 0,3 29 16 48 26 WNW -
13.08.2017 08:00:00 4,5 -0,7 18 10 - - WNW -
13.08.2017 07:00:00 3,8 1,8 35 19 48 26 WNW -
13.08.2017 06:00:00 3,9 3,0 39 21 46 25 WNW -
13.08.2017 05:00:00 4,1 3,1 41 22 52 28 WNW -
13.08.2017 04:00:00 3,7 3,2 35 19 50 27 WNW -
13.08.2017 03:00:00 4,1 3,7 48 26 52 28 WNW -
13.08.2017 02:00:00 4,5 3,6 46 25 54 29 WNW -
13.08.2017 01:00:00 4,9 4,2 46 25 52 28 WNW -
13.08.2017 00:00:00 5,2 4,2 42 23 54 29 WNW -
12.08.2017 23:00:00 5,2 3,8 37 20 46 25 WNW -
12.08.2017 22:00:00 5,9 4,7 37 20 - - WNW 0,3
12.08.2017 21:00:00 6,1 4,5 37 20 48 26 NW -
12.08.2017 20:00:00 7,3 3,7 13 7 - - WNW -
12.08.2017 19:00:00 7,2 4,6 16 9 - - NW -
12.08.2017 18:00:00 7,8 1,5 22 12 - - NNW -
12.08.2017 17:00:00 6,8 4,0 29 16 48 26 NNW -
12.08.2017 16:00:00 7,5 5,1 26 14 50 27 NW -
12.08.2017 15:00:00 8,6 1,3 16 9 - - NNW -
12.08.2017 14:00:00 6,8 3,7 35 19 48 26 NNW -
12.08.2017 13:00:00 7,8 1,5 31 17 - - NNW -
12.08.2017 12:00:00 7,5 0,8 13 7 - - NW -
12.08.2017 11:00:00 6,4 2,0 26 14 - - NNW -
12.08.2017 10:00:00 6,9 2,3 37 20 46 25 NNW 0,3
12.08.2017 09:00:00 5,6 3,6 34 18 - - NNW -
12.08.2017 08:00:00 5,0 4,5 34 18 50 27 N -
12.08.2017 07:00:00 5,1 5,0 42 23 52 28 N -
12.08.2017 06:00:00 5,3 5,2 34 18 46 25 N -
12.08.2017 05:00:00 5,3 5,2 35 19 - - NNE -
12.08.2017 04:00:00 6,1 6,0 28 15 - - N -
12.08.2017 03:00:00 7,6 7,5 21 11 - - NW -
12.08.2017 02:00:00 7,5 7,3 39 21 50 27 WNW -
12.08.2017 01:00:00 7,5 7,3 26 14 50 27 W -
12.08.2017 00:00:00 7,6 7,4 35 19 52 28 W -

tt = temperature
td = dewpoint
ff = wind speed
fx = gusts
dd = wind direction
vv = visibility

Next stations